sensor_id;sensor_type;location;lat;lon;timestamp;temperature;humidity
21306;DHT22;10812;51.838;5.838;2023-09-30T00:00:59;11.90;99.90
21306;DHT22;10812;51.838;5.838;2023-09-30T00:03:28;11.90;99.90
21306;DHT22;10812;51.838;5.838;2023-09-30T00:05:56;12.00;99.90
21306;DHT22;10812;51.838;5.838;2023-09-30T00:08:25;12.00;99.90
21306;DHT22;10812;51.838;5.838;2023-09-30T00:10:54;12.00;99.90
21306;DHT22;10812;51.838;5.838;2023-09-30T00:13:23;12.00;99.90
21306;DHT22;10812;51.838;5.838;2023-09-30T00:15:51;12.00;99.90
21306;DHT22;10812;51.838;5.838;2023-09-30T00:18:19;12.00;99.90
21306;DHT22;10812;51.838;5.838;2023-09-30T00:20:47;12.00;99.90
21306;DHT22;10812;51.838;5.838;2023-09-30T00:23:15;12.10;99.90
21306;DHT22;10812;51.838;5.838;2023-09-30T00:25:48;12.00;99.90
21306;DHT22;10812;51.838;5.838;2023-09-30T00:35:52;12.10;99.90
21306;DHT22;10812;51.838;5.838;2023-09-30T00:38:20;12.10;99.90
21306;DHT22;10812;51.838;5.838;2023-09-30T00:40:50;12.00;99.90
21306;DHT22;10812;51.838;5.838;2023-09-30T00:43:19;12.10;99.90
21306;DHT22;10812;51.838;5.838;2023-09-30T00:45:48;12.10;99.90
21306;DHT22;10812;51.838;5.838;2023-09-30T00:48:16;12.10;99.90
21306;DHT22;10812;51.838;5.838;2023-09-30T00:50:45;12.00;99.90
21306;DHT22;10812;51.838;5.838;2023-09-30T00:53:14;12.00;99.90
21306;DHT22;10812;51.838;5.838;2023-09-30T00:55:42;12.00;99.90
21306;DHT22;10812;51.838;5.838;2023-09-30T00:58:11;12.00;99.90
21306;DHT22;10812;51.838;5.838;2023-09-30T01:00:39;11.90;99.90
21306;DHT22;10812;51.838;5.838;2023-09-30T01:03:33;12.00;99.90
21306;DHT22;10812;51.838;5.838;2023-09-30T01:06:01;12.00;99.90
21306;DHT22;10812;51.838;5.838;2023-09-30T01:08:30;11.90;99.90
21306;DHT22;10812;51.838;5.838;2023-09-30T01:10:59;12.00;99.90
21306;DHT22;10812;51.838;5.838;2023-09-30T01:13:32;11.90;99.90
21306;DHT22;10812;51.838;5.838;2023-09-30T01:16:03;11.80;99.90
21306;DHT22;10812;51.838;5.838;2023-09-30T01:18:32;11.70;99.90
21306;DHT22;10812;51.838;5.838;2023-09-30T01:21:03;11.70;99.90
21306;DHT22;10812;51.838;5.838;2023-09-30T01:23:33;11.60;99.90
21306;DHT22;10812;51.838;5.838;2023-09-30T01:26:03;11.60;99.90
21306;DHT22;10812;51.838;5.838;2023-09-30T01:28:32;11.60;99.90
21306;DHT22;10812;51.838;5.838;2023-09-30T01:31:00;11.50;99.90
21306;DHT22;10812;51.838;5.838;2023-09-30T01:33:29;11.50;99.90
21306;DHT22;10812;51.838;5.838;2023-09-30T01:35:58;11.50;99.90
21306;DHT22;10812;51.838;5.838;2023-09-30T01:38:26;11.50;99.90
21306;DHT22;10812;51.838;5.838;2023-09-30T01:40:55;11.40;99.90
21306;DHT22;10812;51.838;5.838;2023-09-30T01:43:26;11.40;99.90
21306;DHT22;10812;51.838;5.838;2023-09-30T01:49:42;11.50;99.90
21306;DHT22;10812;51.838;5.838;2023-09-30T01:52:10;11.40;99.90
21306;DHT22;10812;51.838;5.838;2023-09-30T01:58:05;11.40;99.90
21306;DHT22;10812;51.838;5.838;2023-09-30T02:00:34;11.40;99.90
21306;DHT22;10812;51.838;5.838;2023-09-30T02:03:02;11.30;99.90
21306;DHT22;10812;51.838;5.838;2023-09-30T02:05:30;11.30;99.90
21306;DHT22;10812;51.838;5.838;2023-09-30T02:07:58;11.30;99.90
21306;DHT22;10812;51.838;5.838;2023-09-30T02:10:26;11.30;99.90
21306;DHT22;10812;51.838;5.838;2023-09-30T02:12:55;11.30;99.90
21306;DHT22;10812;51.838;5.838;2023-09-30T02:15:25;11.30;99.90
21306;DHT22;10812;51.838;5.838;2023-09-30T02:17:53;11.20;99.90
21306;DHT22;10812;51.838;5.838;2023-09-30T02:20:58;11.20;99.90
21306;DHT22;10812;51.838;5.838;2023-09-30T02:23:27;11.20;99.90
21306;DHT22;10812;51.838;5.838;2023-09-30T02:25:55;11.30;99.90
21306;DHT22;10812;51.838;5.838;2023-09-30T02:32:11;11.40;99.90
21306;DHT22;10812;51.838;5.838;2023-09-30T02:34:40;11.50;99.90
21306;DHT22;10812;51.838;5.838;2023-09-30T02:37:09;11.50;99.90
21306;DHT22;10812;51.838;5.838;2023-09-30T02:39:37;11.50;99.90
21306;DHT22;10812;51.838;5.838;2023-09-30T02:42:05;11.50;99.90
21306;DHT22;10812;51.838;5.838;2023-09-30T02:44:33;11.50;99.90
21306;DHT22;10812;51.838;5.838;2023-09-30T02:47:21;11.60;99.90
21306;DHT22;10812;51.838;5.838;2023-09-30T02:49:49;11.60;99.90
21306;DHT22;10812;51.838;5.838;2023-09-30T02:52:17;11.60;99.90
21306;DHT22;10812;51.838;5.838;2023-09-30T02:54:45;11.60;99.90
21306;DHT22;10812;51.838;5.838;2023-09-30T02:57:13;11.60;99.90
21306;DHT22;10812;51.838;5.838;2023-09-30T02:59:42;11.70;99.90
21306;DHT22;10812;51.838;5.838;2023-09-30T03:07:35;11.70;99.90
21306;DHT22;10812;51.838;5.838;2023-09-30T03:10:05;11.70;99.90
21306;DHT22;10812;51.838;5.838;2023-09-30T03:12:54;11.70;99.90
21306;DHT22;10812;51.838;5.838;2023-09-30T03:15:22;11.70;99.90
21306;DHT22;10812;51.838;5.838;2023-09-30T03:17:51;11.70;99.90
21306;DHT22;10812;51.838;5.838;2023-09-30T03:20:29;11.70;99.90
21306;DHT22;10812;51.838;5.838;2023-09-30T03:22:59;11.80;99.90
21306;DHT22;10812;51.838;5.838;2023-09-30T03:25:28;11.90;99.90
21306;DHT22;10812;51.838;5.838;2023-09-30T03:27:57;11.90;99.90
21306;DHT22;10812;51.838;5.838;2023-09-30T03:30:25;11.90;99.90
21306;DHT22;10812;51.838;5.838;2023-09-30T03:32:53;11.80;99.90
21306;DHT22;10812;51.838;5.838;2023-09-30T03:39:10;11.80;99.90
21306;DHT22;10812;51.838;5.838;2023-09-30T03:45:57;11.90;99.90
21306;DHT22;10812;51.838;5.838;2023-09-30T03:48:25;11.90;99.90
21306;DHT22;10812;51.838;5.838;2023-09-30T03:50:53;12.00;99.90
21306;DHT22;10812;51.838;5.838;2023-09-30T03:53:21;12.00;99.90
21306;DHT22;10812;51.838;5.838;2023-09-30T03:55:54;11.90;99.90
21306;DHT22;10812;51.838;5.838;2023-09-30T03:58:22;12.00;99.90
21306;DHT22;10812;51.838;5.838;2023-09-30T04:00:50;11.90;99.90
21306;DHT22;10812;51.838;5.838;2023-09-30T04:03:19;12.00;99.90
21306;DHT22;10812;51.838;5.838;2023-09-30T04:05:47;12.00;99.90
21306;DHT22;10812;51.838;5.838;2023-09-30T04:08:17;12.00;99.90
21306;DHT22;10812;51.838;5.838;2023-09-30T04:10:46;11.90;99.90
21306;DHT22;10812;51.838;5.838;2023-09-30T04:13:15;11.90;99.90
21306;DHT22;10812;51.838;5.838;2023-09-30T04:15:43;11.90;99.90
21306;DHT22;10812;51.838;5.838;2023-09-30T04:18:15;11.90;99.90
21306;DHT22;10812;51.838;5.838;2023-09-30T04:20:47;11.90;99.90
21306;DHT22;10812;51.838;5.838;2023-09-30T04:23:15;11.90;99.90
21306;DHT22;10812;51.838;5.838;2023-09-30T04:25:43;11.90;99.90
21306;DHT22;10812;51.838;5.838;2023-09-30T04:28:11;11.90;99.90
21306;DHT22;10812;51.838;5.838;2023-09-30T04:30:41;11.80;99.90
21306;DHT22;10812;51.838;5.838;2023-09-30T04:33:09;11.80;99.90
21306;DHT22;10812;51.838;5.838;2023-09-30T04:35:39;11.80;99.90
21306;DHT22;10812;51.838;5.838;2023-09-30T04:38:07;11.80;99.90
21306;DHT22;10812;51.838;5.838;2023-09-30T04:40:35;11.80;99.90
21306;DHT22;10812;51.838;5.838;2023-09-30T04:43:04;11.80;99.90
21306;DHT22;10812;51.838;5.838;2023-09-30T04:45:32;11.80;99.90
21306;DHT22;10812;51.838;5.838;2023-09-30T04:48:02;11.80;99.90
21306;DHT22;10812;51.838;5.838;2023-09-30T04:50:31;11.80;99.90
21306;DHT22;10812;51.838;5.838;2023-09-30T04:52:59;11.80;99.90
21306;DHT22;10812;51.838;5.838;2023-09-30T04:55:27;11.80;99.90
21306;DHT22;10812;51.838;5.838;2023-09-30T04:57:55;11.80;99.90
21306;DHT22;10812;51.838;5.838;2023-09-30T05:00:24;11.70;99.90
21306;DHT22;10812;51.838;5.838;2023-09-30T05:02:54;11.70;99.90
21306;DHT22;10812;51.838;5.838;2023-09-30T05:05:24;11.70;99.90
21306;DHT22;10812;51.838;5.838;2023-09-30T05:07:52;11.70;99.90
21306;DHT22;10812;51.838;5.838;2023-09-30T05:10:20;11.70;99.90
21306;DHT22;10812;51.838;5.838;2023-09-30T05:12:49;11.70;99.90
21306;DHT22;10812;51.838;5.838;2023-09-30T05:15:21;11.70;99.90
21306;DHT22;10812;51.838;5.838;2023-09-30T05:17:50;11.70;99.90
21306;DHT22;10812;51.838;5.838;2023-09-30T05:20:18;11.70;99.90
21306;DHT22;10812;51.838;5.838;2023-09-30T05:22:48;11.70;99.90
21306;DHT22;10812;51.838;5.838;2023-09-30T05:25:17;11.70;99.90
21306;DHT22;10812;51.838;5.838;2023-09-30T05:27:46;11.70;99.90
21306;DHT22;10812;51.838;5.838;2023-09-30T05:30:16;11.70;99.90
21306;DHT22;10812;51.838;5.838;2023-09-30T05:32:46;11.70;99.90
21306;DHT22;10812;51.838;5.838;2023-09-30T05:35:15;11.80;99.90
21306;DHT22;10812;51.838;5.838;2023-09-30T05:37:44;11.70;99.90
21306;DHT22;10812;51.838;5.838;2023-09-30T05:40:14;11.80;99.90
21306;DHT22;10812;51.838;5.838;2023-09-30T05:42:51;11.70;99.90
21306;DHT22;10812;51.838;5.838;2023-09-30T05:45:19;11.70;99.90
21306;DHT22;10812;51.838;5.838;2023-09-30T05:47:47;11.70;99.90
21306;DHT22;10812;51.838;5.838;2023-09-30T05:50:18;11.70;99.90
21306;DHT22;10812;51.838;5.838;2023-09-30T05:52:51;11.70;99.90
21306;DHT22;10812;51.838;5.838;2023-09-30T05:55:21;11.70;99.90
21306;DHT22;10812;51.838;5.838;2023-09-30T05:57:51;11.70;99.90
21306;DHT22;10812;51.838;5.838;2023-09-30T06:00:21;11.70;99.90
21306;DHT22;10812;51.838;5.838;2023-09-30T06:02:50;11.80;99.90
21306;DHT22;10812;51.838;5.838;2023-09-30T06:05:18;11.80;99.90
21306;DHT22;10812;51.838;5.838;2023-09-30T06:07:46;11.90;99.90
21306;DHT22;10812;51.838;5.838;2023-09-30T06:10:15;12.00;99.90
21306;DHT22;10812;51.838;5.838;2023-09-30T06:12:47;12.00;99.90
21306;DHT22;10812;51.838;5.838;2023-09-30T06:15:16;12.00;99.90
21306;DHT22;10812;51.838;5.838;2023-09-30T06:17:49;12.00;99.90
21306;DHT22;10812;51.838;5.838;2023-09-30T06:20:19;12.10;99.90
21306;DHT22;10812;51.838;5.838;2023-09-30T06:22:49;12.10;99.90
21306;DHT22;10812;51.838;5.838;2023-09-30T06:25:18;12.20;99.90
21306;DHT22;10812;51.838;5.838;2023-09-30T06:27:48;12.20;99.90
21306;DHT22;10812;51.838;5.838;2023-09-30T06:30:18;12.30;99.90
21306;DHT22;10812;51.838;5.838;2023-09-30T06:32:48;12.40;99.90
21306;DHT22;10812;51.838;5.838;2023-09-30T06:35:16;12.70;99.90
21306;DHT22;10812;51.838;5.838;2023-09-30T06:37:48;13.50;99.90
21306;DHT22;10812;51.838;5.838;2023-09-30T06:40:16;14.20;99.90
21306;DHT22;10812;51.838;5.838;2023-09-30T06:42:47;15.10;99.90
21306;DHT22;10812;51.838;5.838;2023-09-30T06:45:15;15.90;99.90
21306;DHT22;10812;51.838;5.838;2023-09-30T06:47:44;16.80;99.90
21306;DHT22;10812;51.838;5.838;2023-09-30T06:50:13;17.10;99.90
21306;DHT22;10812;51.838;5.838;2023-09-30T06:52:44;16.80;99.90
21306;DHT22;10812;51.838;5.838;2023-09-30T06:55:14;16.60;99.90
21306;DHT22;10812;51.838;5.838;2023-09-30T06:57:43;16.70;99.90
21306;DHT22;10812;51.838;5.838;2023-09-30T07:00:14;17.30;99.90
21306;DHT22;10812;51.838;5.838;2023-09-30T07:02:43;18.30;99.90
21306;DHT22;10812;51.838;5.838;2023-09-30T07:05:14;19.40;99.90
21306;DHT22;10812;51.838;5.838;2023-09-30T07:07:42;19.80;99.90
21306;DHT22;10812;51.838;5.838;2023-09-30T07:10:11;19.70;99.90
21306;DHT22;10812;51.838;5.838;2023-09-30T07:12:39;19.90;99.90
21306;DHT22;10812;51.838;5.838;2023-09-30T07:15:09;19.70;99.90
21306;DHT22;10812;51.838;5.838;2023-09-30T07:17:38;18.90;99.90
21306;DHT22;10812;51.838;5.838;2023-09-30T07:20:11;18.20;99.90
21306;DHT22;10812;51.838;5.838;2023-09-30T07:22:40;17.60;99.90
21306;DHT22;10812;51.838;5.838;2023-09-30T07:25:29;17.00;99.90
21306;DHT22;10812;51.838;5.838;2023-09-30T07:27:58;16.60;99.90
21306;DHT22;10812;51.838;5.838;2023-09-30T07:30:27;16.40;99.90
21306;DHT22;10812;51.838;5.838;2023-09-30T07:32:57;16.10;99.90
21306;DHT22;10812;51.838;5.838;2023-09-30T07:35:25;15.90;99.90
21306;DHT22;10812;51.838;5.838;2023-09-30T07:37:53;15.80;99.90
21306;DHT22;10812;51.838;5.838;2023-09-30T07:40:21;15.80;99.90
21306;DHT22;10812;51.838;5.838;2023-09-30T07:42:49;15.70;99.90
21306;DHT22;10812;51.838;5.838;2023-09-30T07:45:18;15.70;99.90
21306;DHT22;10812;51.838;5.838;2023-09-30T07:47:48;15.90;99.90
21306;DHT22;10812;51.838;5.838;2023-09-30T07:50:17;16.90;99.90
21306;DHT22;10812;51.838;5.838;2023-09-30T07:52:46;17.60;99.90
21306;DHT22;10812;51.838;5.838;2023-09-30T07:55:14;18.00;99.90
21306;DHT22;10812;51.838;5.838;2023-09-30T07:57:43;18.50;99.90
21306;DHT22;10812;51.838;5.838;2023-09-30T08:00:12;19.00;99.90
21306;DHT22;10812;51.838;5.838;2023-09-30T08:02:43;19.70;99.90
21306;DHT22;10812;51.838;5.838;2023-09-30T08:08:39;19.10;99.90
21306;DHT22;10812;51.838;5.838;2023-09-30T08:11:07;18.40;99.90
21306;DHT22;10812;51.838;5.838;2023-09-30T08:13:35;17.70;99.90
21306;DHT22;10812;51.838;5.838;2023-09-30T08:16:03;17.30;99.90
21306;DHT22;10812;51.838;5.838;2023-09-30T08:18:32;17.00;99.90
21306;DHT22;10812;51.838;5.838;2023-09-30T08:21:00;16.70;99.90
21306;DHT22;10812;51.838;5.838;2023-09-30T08:23:29;17.30;99.90
21306;DHT22;10812;51.838;5.838;2023-09-30T08:25:59;18.60;99.90
21306;DHT22;10812;51.838;5.838;2023-09-30T08:28:27;19.40;99.90
21306;DHT22;10812;51.838;5.838;2023-09-30T08:30:55;20.50;99.90
21306;DHT22;10812;51.838;5.838;2023-09-30T08:33:29;21.50;99.90
21306;DHT22;10812;51.838;5.838;2023-09-30T08:36:02;22.10;99.90
21306;DHT22;10812;51.838;5.838;2023-09-30T08:38:34;22.70;99.90
21306;DHT22;10812;51.838;5.838;2023-09-30T08:41:04;23.40;99.90
21306;DHT22;10812;51.838;5.838;2023-09-30T08:43:36;23.50;99.90
21306;DHT22;10812;51.838;5.838;2023-09-30T08:46:07;23.50;99.90
21306;DHT22;10812;51.838;5.838;2023-09-30T08:48:35;23.80;99.90
21306;DHT22;10812;51.838;5.838;2023-09-30T08:51:04;24.00;99.90
21306;DHT22;10812;51.838;5.838;2023-09-30T08:53:34;24.20;99.90
21306;DHT22;10812;51.838;5.838;2023-09-30T08:56:06;24.20;99.90
21306;DHT22;10812;51.838;5.838;2023-09-30T08:58:37;24.30;99.90
21306;DHT22;10812;51.838;5.838;2023-09-30T09:01:06;24.40;99.90
21306;DHT22;10812;51.838;5.838;2023-09-30T09:03:36;24.40;99.90
21306;DHT22;10812;51.838;5.838;2023-09-30T09:06:06;24.40;99.90
21306;DHT22;10812;51.838;5.838;2023-09-30T09:08:34;24.30;99.90
21306;DHT22;10812;51.838;5.838;2023-09-30T09:11:03;24.20;99.90
21306;DHT22;10812;51.838;5.838;2023-09-30T09:13:45;24.20;99.90
21306;DHT22;10812;51.838;5.838;2023-09-30T09:16:17;24.00;99.90
21306;DHT22;10812;51.838;5.838;2023-09-30T09:18:46;24.40;99.90
21306;DHT22;10812;51.838;5.838;2023-09-30T09:21:17;24.60;99.90
21306;DHT22;10812;51.838;5.838;2023-09-30T09:23:47;24.90;99.90
21306;DHT22;10812;51.838;5.838;2023-09-30T09:26:25;24.50;99.90
21306;DHT22;10812;51.838;5.838;2023-09-30T09:28:57;24.60;99.90
21306;DHT22;10812;51.838;5.838;2023-09-30T09:31:27;24.40;99.90
21306;DHT22;10812;51.838;5.838;2023-09-30T09:33:56;24.20;99.90
21306;DHT22;10812;51.838;5.838;2023-09-30T09:36:38;23.90;99.90
21306;DHT22;10812;51.838;5.838;2023-09-30T09:42:37;24.20;99.90
21306;DHT22;10812;51.838;5.838;2023-09-30T09:45:06;24.40;99.90
21306;DHT22;10812;51.838;5.838;2023-09-30T09:47:36;24.30;99.90
21306;DHT22;10812;51.838;5.838;2023-09-30T09:50:05;24.20;99.90
21306;DHT22;10812;51.838;5.838;2023-09-30T09:52:34;24.30;99.90
21306;DHT22;10812;51.838;5.838;2023-09-30T09:55:03;24.40;99.90
21306;DHT22;10812;51.838;5.838;2023-09-30T09:57:32;24.40;99.90
21306;DHT22;10812;51.838;5.838;2023-09-30T10:00:03;24.50;99.90
21306;DHT22;10812;51.838;5.838;2023-09-30T10:02:32;24.30;99.90
21306;DHT22;10812;51.838;5.838;2023-09-30T10:05:02;23.90;99.90
21306;DHT22;10812;51.838;5.838;2023-09-30T10:07:36;23.30;99.90
21306;DHT22;10812;51.838;5.838;2023-09-30T10:10:10;22.50;99.90
21306;DHT22;10812;51.838;5.838;2023-09-30T10:12:40;21.90;99.90
21306;DHT22;10812;51.838;5.838;2023-09-30T10:15:36;21.60;99.90
21306;DHT22;10812;51.838;5.838;2023-09-30T10:18:08;21.40;99.90
21306;DHT22;10812;51.838;5.838;2023-09-30T10:20:43;21.30;99.90
21306;DHT22;10812;51.838;5.838;2023-09-30T10:23:20;21.20;99.90
21306;DHT22;10812;51.838;5.838;2023-09-30T10:25:49;20.90;99.90
21306;DHT22;10812;51.838;5.838;2023-09-30T10:28:37;20.60;99.90
21306;DHT22;10812;51.838;5.838;2023-09-30T10:31:12;20.50;99.90
21306;DHT22;10812;51.838;5.838;2023-09-30T10:34:20;20.50;99.90
21306;DHT22;10812;51.838;5.838;2023-09-30T10:36:49;20.60;99.90
21306;DHT22;10812;51.838;5.838;2023-09-30T10:39:54;20.80;99.90
21306;DHT22;10812;51.838;5.838;2023-09-30T10:42:43;20.70;99.90
21306;DHT22;10812;51.838;5.838;2023-09-30T10:45:42;20.80;99.90
21306;DHT22;10812;51.838;5.838;2023-09-30T10:48:35;20.90;99.90
21306;DHT22;10812;51.838;5.838;2023-09-30T10:51:11;21.10;99.90
21306;DHT22;10812;51.838;5.838;2023-09-30T10:53:43;21.20;99.90
21306;DHT22;10812;51.838;5.838;2023-09-30T10:56:12;21.40;99.90
21306;DHT22;10812;51.838;5.838;2023-09-30T10:58:41;21.50;99.90
21306;DHT22;10812;51.838;5.838;2023-09-30T11:01:09;21.50;99.90
21306;DHT22;10812;51.838;5.838;2023-09-30T11:03:39;21.70;99.90
21306;DHT22;10812;51.838;5.838;2023-09-30T11:06:11;21.70;99.90
21306;DHT22;10812;51.838;5.838;2023-09-30T11:08:45;21.70;99.90
21306;DHT22;10812;51.838;5.838;2023-09-30T11:11:13;21.70;99.90
21306;DHT22;10812;51.838;5.838;2023-09-30T11:13:42;21.60;99.90
21306;DHT22;10812;51.838;5.838;2023-09-30T11:16:10;21.70;99.90
21306;DHT22;10812;51.838;5.838;2023-09-30T11:22:28;21.80;99.90
21306;DHT22;10812;51.838;5.838;2023-09-30T11:24:56;21.80;99.90
21306;DHT22;10812;51.838;5.838;2023-09-30T11:27:25;21.60;99.90
21306;DHT22;10812;51.838;5.838;2023-09-30T11:29:54;21.60;99.90
21306;DHT22;10812;51.838;5.838;2023-09-30T11:32:25;21.40;99.90
21306;DHT22;10812;51.838;5.838;2023-09-30T11:34:54;21.20;99.90
21306;DHT22;10812;51.838;5.838;2023-09-30T11:37:23;21.20;99.90
21306;DHT22;10812;51.838;5.838;2023-09-30T11:39:53;21.20;99.90
21306;DHT22;10812;51.838;5.838;2023-09-30T11:42:21;21.40;99.90
21306;DHT22;10812;51.838;5.838;2023-09-30T11:44:49;21.70;99.90
21306;DHT22;10812;51.838;5.838;2023-09-30T11:47:28;22.00;99.90
21306;DHT22;10812;51.838;5.838;2023-09-30T11:49:57;22.20;99.90
21306;DHT22;10812;51.838;5.838;2023-09-30T11:52:27;22.20;99.90
21306;DHT22;10812;51.838;5.838;2023-09-30T11:54:57;22.20;99.90
21306;DHT22;10812;51.838;5.838;2023-09-30T11:57:25;22.00;99.90
21306;DHT22;10812;51.838;5.838;2023-09-30T11:59:53;21.80;99.90
21306;DHT22;10812;51.838;5.838;2023-09-30T12:02:21;21.50;99.90
21306;DHT22;10812;51.838;5.838;2023-09-30T12:04:49;21.30;99.90
21306;DHT22;10812;51.838;5.838;2023-09-30T12:07:18;21.30;99.90
21306;DHT22;10812;51.838;5.838;2023-09-30T12:09:46;21.60;99.90
21306;DHT22;10812;51.838;5.838;2023-09-30T12:12:16;21.80;99.90
21306;DHT22;10812;51.838;5.838;2023-09-30T12:14:44;21.90;99.90
21306;DHT22;10812;51.838;5.838;2023-09-30T12:17:12;21.90;99.90
21306;DHT22;10812;51.838;5.838;2023-09-30T12:19:41;21.80;99.90
21306;DHT22;10812;51.838;5.838;2023-09-30T12:25:38;21.60;99.90
21306;DHT22;10812;51.838;5.838;2023-09-30T12:28:08;21.70;99.90
21306;DHT22;10812;51.838;5.838;2023-09-30T12:30:36;21.60;99.90
21306;DHT22;10812;51.838;5.838;2023-09-30T12:33:04;21.40;99.90
21306;DHT22;10812;51.838;5.838;2023-09-30T12:35:33;21.30;99.90
21306;DHT22;10812;51.838;5.838;2023-09-30T12:38:02;21.40;99.90
21306;DHT22;10812;51.838;5.838;2023-09-30T12:40:30;21.40;99.90
21306;DHT22;10812;51.838;5.838;2023-09-30T12:42:58;21.30;99.90
21306;DHT22;10812;51.838;5.838;2023-09-30T12:45:28;21.20;99.90
21306;DHT22;10812;51.838;5.838;2023-09-30T12:47:56;21.10;99.90
21306;DHT22;10812;51.838;5.838;2023-09-30T12:50:24;21.00;99.90
21306;DHT22;10812;51.838;5.838;2023-09-30T12:52:52;20.80;99.90
21306;DHT22;10812;51.838;5.838;2023-09-30T12:55:20;20.70;99.90
21306;DHT22;10812;51.838;5.838;2023-09-30T12:57:48;20.50;99.90
21306;DHT22;10812;51.838;5.838;2023-09-30T13:00:16;20.30;99.90
21306;DHT22;10812;51.838;5.838;2023-09-30T13:02:47;20.30;99.90
21306;DHT22;10812;51.838;5.838;2023-09-30T13:05:15;20.30;99.90
21306;DHT22;10812;51.838;5.838;2023-09-30T13:07:44;20.40;99.90
21306;DHT22;10812;51.838;5.838;2023-09-30T13:10:13;20.40;99.90
21306;DHT22;10812;51.838;5.838;2023-09-30T13:16:28;20.30;99.90
21306;DHT22;10812;51.838;5.838;2023-09-30T13:18:58;20.50;99.90
21306;DHT22;10812;51.838;5.838;2023-09-30T13:21:27;20.50;99.90
21306;DHT22;10812;51.838;5.838;2023-09-30T13:23:55;20.50;99.90
21306;DHT22;10812;51.838;5.838;2023-09-30T13:26:23;20.40;99.90
21306;DHT22;10812;51.838;5.838;2023-09-30T13:28:53;20.20;99.90
21306;DHT22;10812;51.838;5.838;2023-09-30T13:31:21;20.10;99.90
21306;DHT22;10812;51.838;5.838;2023-09-30T13:33:49;20.10;99.90
21306;DHT22;10812;51.838;5.838;2023-09-30T13:36:19;20.00;99.90
21306;DHT22;10812;51.838;5.838;2023-09-30T13:38:47;19.90;99.90
21306;DHT22;10812;51.838;5.838;2023-09-30T13:41:16;19.80;99.90
21306;DHT22;10812;51.838;5.838;2023-09-30T13:43:44;19.80;99.90
21306;DHT22;10812;51.838;5.838;2023-09-30T13:46:12;19.70;99.90
21306;DHT22;10812;51.838;5.838;2023-09-30T13:48:40;19.70;99.90
21306;DHT22;10812;51.838;5.838;2023-09-30T13:51:09;19.70;99.90
21306;DHT22;10812;51.838;5.838;2023-09-30T13:53:39;19.60;99.90
21306;DHT22;10812;51.838;5.838;2023-09-30T13:56:10;19.70;99.90
21306;DHT22;10812;51.838;5.838;2023-09-30T13:58:38;19.70;99.90
21306;DHT22;10812;51.838;5.838;2023-09-30T14:01:06;19.70;99.90
21306;DHT22;10812;51.838;5.838;2023-09-30T14:03:34;19.70;99.90
21306;DHT22;10812;51.838;5.838;2023-09-30T14:06:03;19.80;99.90
21306;DHT22;10812;51.838;5.838;2023-09-30T14:08:39;19.80;99.90
21306;DHT22;10812;51.838;5.838;2023-09-30T14:11:09;19.90;99.90
21306;DHT22;10812;51.838;5.838;2023-09-30T14:13:38;19.90;99.90
21306;DHT22;10812;51.838;5.838;2023-09-30T14:16:06;20.00;99.90
21306;DHT22;10812;51.838;5.838;2023-09-30T14:18:34;20.00;99.90
21306;DHT22;10812;51.838;5.838;2023-09-30T14:21:03;20.00;99.90
21306;DHT22;10812;51.838;5.838;2023-09-30T14:23:31;20.00;99.90
21306;DHT22;10812;51.838;5.838;2023-09-30T14:26:00;19.90;99.90
21306;DHT22;10812;51.838;5.838;2023-09-30T14:28:33;19.90;99.90
21306;DHT22;10812;51.838;5.838;2023-09-30T14:31:03;19.80;99.90
21306;DHT22;10812;51.838;5.838;2023-09-30T14:33:32;19.90;99.90
21306;DHT22;10812;51.838;5.838;2023-09-30T14:36:01;19.90;99.90
21306;DHT22;10812;51.838;5.838;2023-09-30T14:38:33;20.00;99.90
21306;DHT22;10812;51.838;5.838;2023-09-30T14:41:06;20.00;99.90
21306;DHT22;10812;51.838;5.838;2023-09-30T14:43:34;20.10;99.90
21306;DHT22;10812;51.838;5.838;2023-09-30T14:46:02;20.10;99.90
21306;DHT22;10812;51.838;5.838;2023-09-30T14:48:31;20.20;99.90
21306;DHT22;10812;51.838;5.838;2023-09-30T14:50:59;20.20;99.90
21306;DHT22;10812;51.838;5.838;2023-09-30T14:53:27;20.20;99.90
21306;DHT22;10812;51.838;5.838;2023-09-30T14:55:55;20.10;99.90
21306;DHT22;10812;51.838;5.838;2023-09-30T14:58:24;20.10;99.90
21306;DHT22;10812;51.838;5.838;2023-09-30T15:00:53;20.00;99.90
21306;DHT22;10812;51.838;5.838;2023-09-30T15:03:21;19.90;99.90
21306;DHT22;10812;51.838;5.838;2023-09-30T15:05:57;19.90;99.90
21306;DHT22;10812;51.838;5.838;2023-09-30T15:08:26;19.80;99.90
21306;DHT22;10812;51.838;5.838;2023-09-30T15:10:54;19.80;99.90
21306;DHT22;10812;51.838;5.838;2023-09-30T15:13:22;19.80;99.90
21306;DHT22;10812;51.838;5.838;2023-09-30T15:15:51;19.80;99.90
21306;DHT22;10812;51.838;5.838;2023-09-30T15:18:19;19.80;99.90
21306;DHT22;10812;51.838;5.838;2023-09-30T15:20:49;19.80;99.90
21306;DHT22;10812;51.838;5.838;2023-09-30T15:23:17;19.80;99.90
21306;DHT22;10812;51.838;5.838;2023-09-30T15:25:47;19.80;99.90
21306;DHT22;10812;51.838;5.838;2023-09-30T15:28:15;19.80;99.90
21306;DHT22;10812;51.838;5.838;2023-09-30T15:30:43;19.80;99.90
21306;DHT22;10812;51.838;5.838;2023-09-30T15:33:12;19.70;99.90
21306;DHT22;10812;51.838;5.838;2023-09-30T15:35:40;19.80;99.90
21306;DHT22;10812;51.838;5.838;2023-09-30T15:38:08;19.70;99.90
21306;DHT22;10812;51.838;5.838;2023-09-30T15:40:51;19.70;99.90
21306;DHT22;10812;51.838;5.838;2023-09-30T15:43:19;19.70;99.90
21306;DHT22;10812;51.838;5.838;2023-09-30T15:45:48;19.70;99.90
21306;DHT22;10812;51.838;5.838;2023-09-30T15:48:17;19.60;99.90
21306;DHT22;10812;51.838;5.838;2023-09-30T15:50:46;19.50;99.90
21306;DHT22;10812;51.838;5.838;2023-09-30T15:53:14;19.40;99.90
21306;DHT22;10812;51.838;5.838;2023-09-30T15:55:43;19.30;99.90
21306;DHT22;10812;51.838;5.838;2023-09-30T15:58:11;19.30;99.90
21306;DHT22;10812;51.838;5.838;2023-09-30T16:00:39;19.20;99.90
21306;DHT22;10812;51.838;5.838;2023-09-30T16:03:10;19.10;99.90
21306;DHT22;10812;51.838;5.838;2023-09-30T16:05:40;19.00;99.90
21306;DHT22;10812;51.838;5.838;2023-09-30T16:08:09;18.90;99.90
21306;DHT22;10812;51.838;5.838;2023-09-30T16:10:37;18.80;99.90
21306;DHT22;10812;51.838;5.838;2023-09-30T16:13:07;18.80;99.90
21306;DHT22;10812;51.838;5.838;2023-09-30T16:15:38;18.60;99.90
21306;DHT22;10812;51.838;5.838;2023-09-30T16:18:07;18.60;99.90
21306;DHT22;10812;51.838;5.838;2023-09-30T16:20:36;18.50;99.90
21306;DHT22;10812;51.838;5.838;2023-09-30T16:23:05;18.40;99.90
21306;DHT22;10812;51.838;5.838;2023-09-30T16:25:34;18.30;99.90
21306;DHT22;10812;51.838;5.838;2023-09-30T16:28:02;18.20;99.90
21306;DHT22;10812;51.838;5.838;2023-09-30T16:30:32;18.20;99.90
21306;DHT22;10812;51.838;5.838;2023-09-30T16:33:00;18.00;99.90
21306;DHT22;10812;51.838;5.838;2023-09-30T16:35:30;18.00;99.90
21306;DHT22;10812;51.838;5.838;2023-09-30T16:37:58;17.80;99.90